Rechercher aéroport 
image banner adimage banner adimage banner ad
image banner ad

5CL9 - Table Mountain Field

Situé à Auberry, United States

ICAO - 5CL9, IATA -

Données fournies par Airmate  

Information générale

Coordonnées: N37°8'29" W119°30'29"
Élévation : 1280 feet MSL.
Variation magnétique : 15° East
Voir autres Aéroports à California

Données opérationnelles

Special qualification required
Heure actuelle UTC:
Heure actuelle locale:
Météo à : KFAT - Fresno Yosemite Intl ( 45 km )
METAR: KFAT 212353Z 02003KT 6SM HZ FU BKN130 34/09 A3003 RMK AO2 SLP164 FU BKN130 T03440089 10344 20250 56014 $
TAF: KFAT 212320Z 2200/2224 29003KT 5SM HZ FU OVC130
Voir NOTAMs / SUP AIP / TFR affectant cet aéroport [VIEW]
Fréquences de communication: [VIEW]

Pistes:

Identifiant RWYQFULongueur (ft)Largeur (ft)SurfaceLDA (ft)
15200050EARTH
33200050EARTH

Coordonnées de l'aéroport

Adresse: Auberry United States

Vue satellite de 5CL9